Terminal Aerodrome Forecast
Issued by NWS Blacksburg, VA

Current Version | Previous Version | Graphics & Text | Print | Product List | Glossary On
Versions: 1 2 3 4 5 6 7 8 9 10 11 12 13 14 15 16 17 18 19 20 21 22 23 24 25 26 27 28 29 30 31 32 33 34 35 36 37 38 39 40 41 42 43 44 45 46 47 48 49 50
000
FTUS41 KRNK 020537
TAFBLF
TAF
KBLF 020537Z 0206/0306 26012KT 6SM BR OVC002
     FM020800 27010KT 1/2SM FG OVC001
     FM021200 28010KT 2SM -SN OVC004
     FM021400 29012G20KT P6SM OVC007
     FM021800 30008KT P6SM BKN015
     FM022100 30006KT P6SM SCT020
     FM030200 VRB03KT P6SM BKN250=

USA.gov is the U.S. government's official web portal to all federal, state and local government web resources and services.